Main page
METAR-TAF:

METAR-TAF

Airports :

Louang Namtha Airport

Luang Namtha, Laos

latitude: 20-57-38N, longitude: 101-24-09E, elevation: 600 m

Current weather observation

The report was made 8 hours and 38 minutes ago, at 12:00 UTC
Wind 2 kt from the Southeast
Temperature 23°C
Humidity 94%
Pressure 1014 hPa
Visibility: 6000 m
Few clouds at a height of 2000 ft
Overcast at a height of 10000 ft

METAR: VLLN 011200Z 14002KT 6000 FEW020 OVC100 23/22 Q1014 NOSIG

Time: 02:08 (20:38 UTC)

Forecast

The report was made 3 hours and 38 minutes ago, at 17:00 UTC
Forecast valid from 01 at 18 UTC to 02 at 18 UTC
Wind 4 kt from the Southwest
Visibility: 3000 m
Broken clouds at a height of 1300 ft
Overcast at a height of 9000 ft
mist

TAF: VLLN 011700Z 0118/0218 22004KT 3000 BR BKN013 OVC090

Weather observations and forecasts of more than 4000 airports (METAR and TAF reports).

The available stations are represented by yellow and red dots on the map.

Hover mouse over dot to see the name of the station.

Then click to see weather observations and forecasts.

To change the map : click on the green buttons with a black cross to zoom in, on the green button with a dash to zoom out, or on the green arrows for adjacent maps.


METAR-TAF: